Time;durP1;ratioP1;P1;durP2;ratioP2;P2;SDS_P1;SDS_P2;PMS_P1;PMS_P2;Temp;Humidity;BMP_temperature;BMP_pressure;BME280_temperature;BME280_humidity;BME280_pressure;Samples;Min_cycle;Max_cycle;Signal;HPM_P1;HPM_P2
2021/08/18 02:45:19;;;;;;;5.85;2.75;;;18.00;67.30;;;;;;5845298;24;20908;31
2021/08/18 02:47:45;;;;;;;5.50;3.20;;;17.90;67.50;;;;;;4808201;29;20051;-79
2021/08/18 02:50:13;;;;;;;9.32;3.17;;;18.00;68.10;;;;;;4785045;30;20042;-79
2021/08/18 02:52:40;;;;;;;6.80;3.00;;;18.00;68.10;;;;;;4785069;30;20035;-79
2021/08/18 02:55:06;;;;;;;8.98;3.40;;;18.00;67.80;;;;;;4785592;30;20035;-79
2021/08/18 02:57:32;;;;;;;6.95;3.03;;;18.00;68.60;;;;;;4785179;30;20044;-79
2021/08/18 02:59:58;;;;;;;10.40;3.70;;;18.00;68.30;;;;;;4799774;30;20023;-79
2021/08/18 03:02:25;;;;;;;6.68;3.15;;;18.00;68.20;;;;;;4785812;30;20391;-79
2021/08/18 03:04:51;;;;;;;7.78;3.03;;;18.00;68.70;;;;;;4800373;30;20073;-79
2021/08/18 03:07:17;;;;;;;6.03;3.45;;;18.00;68.60;;;;;;4785256;30;20090;-79
2021/08/18 03:09:43;;;;;;;5.70;3.08;;;17.90;68.40;;;;;;4800297;30;20039;-79
2021/08/18 03:12:09;;;;;;;10.15;3.92;;;17.90;68.80;;;;;;4799910;30;20035;-78
2021/08/18 03:14:35;;;;;;;5.13;3.03;;;18.00;68.90;;;;;;4784536;30;20107;-79
2021/08/18 03:17:00;;;;;;;7.72;3.67;;;18.00;68.70;;;;;;4805354;29;20037;-79
2021/08/18 03:19:26;;;;;;;6.38;3.47;;;18.00;68.10;;;;;;4836142;29;20042;-79
2021/08/18 03:21:52;;;;;;;7.05;3.72;;;18.00;68.30;;;;;;4835882;29;20026;-79
2021/08/18 03:24:18;;;;;;;6.45;3.75;;;18.10;68.30;;;;;;4821191;29;20366;-79
2021/08/18 03:26:44;;;;;;;7.78;3.75;;;18.10;68.20;;;;;;4821371;29;20034;-80
2021/08/18 03:29:09;;;;;;;7.22;3.28;;;18.10;68.60;;;;;;4821342;29;20034;-80
2021/08/18 03:31:35;;;;;;;6.97;3.78;;;18.10;68.30;;;;;;4821438;29;20073;-79
2021/08/18 03:34:01;;;;;;;14.00;4.25;;;18.00;68.80;;;;;;4820840;29;20030;-80
2021/08/18 03:36:28;;;;;;;7.25;3.10;;;18.00;68.80;;;;;;4821094;29;20030;-80
2021/08/18 03:38:54;;;;;;;10.23;3.73;;;18.00;69.40;;;;;;4821305;29;20109;-80
2021/08/18 03:41:20;;;;;;;6.30;3.90;;;17.90;69.70;;;;;;4821402;29;20254;-80
2021/08/18 03:43:46;;;;;;;11.45;3.65;;;17.90;70.10;;;;;;4820997;29;20375;-80
2021/08/18 03:46:11;;;;;;;11.85;3.80;;;17.90;70.20;;;;;;4835644;29;20052;-79
2021/08/18 03:48:37;;;;;;;7.47;3.25;;;17.80;70.80;;;;;;4835422;29;20341;-79
2021/08/18 03:51:03;;;;;;;6.38;3.00;;;17.80;71.30;;;;;;4820461;29;20041;-80
2021/08/18 03:53:29;;;;;;;5.50;3.50;;;17.80;71.80;;;;;;4820371;29;20030;-79
2021/08/18 03:55:54;;;;;;;10.20;3.70;;;17.70;72.20;;;;;;4820592;29;20386;-80
2021/08/18 03:58:20;;;;;;;12.25;3.75;;;17.60;73.10;;;;;;4820109;29;20315;-79
2021/08/18 04:00:46;;;;;;;8.02;3.55;;;17.70;73.90;;;;;;4820266;29;20349;-80
2021/08/18 04:03:12;;;;;;;8.55;4.00;;;17.60;74.00;;;;;;4835531;29;20033;-79
2021/08/18 04:05:38;;;;;;;6.03;3.92;;;17.60;74.60;;;;;;4836910;29;20033;-80
2021/08/18 04:08:07;;;;;;;5.95;3.75;;;17.50;74.80;;;;;;4836607;29;20026;-80
2021/08/18 04:10:33;;;;;;;8.52;3.55;;;17.60;74.80;;;;;;4835695;29;20119;-79
2021/08/18 04:12:59;;;;;;;6.57;3.55;;;17.60;74.80;;;;;;4835478;29;20079;-80
2021/08/18 04:15:38;;;;;;;7.88;4.30;;;17.60;75.00;;;;;;4835713;29;20330;-80
2021/08/18 04:18:04;;;;;;;7.65;3.95;;;17.60;75.70;;;;;;4836618;29;20037;-80
2021/08/18 04:20:30;;;;;;;9.63;3.70;;;17.50;76.30;;;;;;4820389;29;20042;-80
2021/08/18 04:22:56;;;;;;;7.90;3.85;;;17.50;76.70;;;;;;4820134;29;20022;-80
2021/08/18 04:25:22;;;;;;;9.70;4.13;;;17.50;77.50;;;;;;4835315;29;20033;-80
2021/08/18 04:27:48;;;;;;;6.85;3.90;;;17.40;78.50;;;;;;4820022;29;20030;-80
2021/08/18 04:30:16;;;;;;;10.67;4.73;;;17.50;78.00;;;;;;4835057;29;20101;-80
2021/08/18 04:32:42;;;;;;;10.25;4.35;;;17.50;78.40;;;;;;4819891;29;20042;-80
2021/08/18 04:35:09;;;;;;;9.25;4.07;;;17.50;78.50;;;;;;4831384;29;20041;-80
2021/08/18 04:37:36;;;;;;;;;;;17.60;78.70;;;;;;4816535;29;20034;-79
2021/08/18 04:40:04;;;;;;;9.15;3.90;;;17.60;78.90;;;;;;4816573;29;20143;-79
2021/08/18 04:42:35;;;;;;;9.32;3.67;;;17.60;78.60;;;;;;4816392;29;20127;-79
2021/08/18 04:45:02;;;;;;;8.82;4.50;;;17.70;78.90;;;;;;4815241;29;20054;-79
2021/08/18 04:47:28;;;;;;;7.55;3.95;;;17.70;79.00;;;;;;4828262;29;20054;-79
2021/08/18 04:49:53;;;;;;;10.82;4.13;;;17.70;79.30;;;;;;4818708;29;20204;-79
2021/08/18 04:52:19;;;;;;;6.60;3.85;;;17.60;79.20;;;;;;4820975;29;20079;-79
2021/08/18 04:54:45;;;;;;;9.05;4.25;;;17.60;79.60;;;;;;4803077;29;20035;-79
2021/08/18 04:57:11;;;;;;;8.20;4.28;;;17.60;79.90;;;;;;4815598;29;20039;-79
2021/08/18 04:59:36;;;;;;;10.85;4.00;;;17.60;80.00;;;;;;4820220;29;20302;-79
2021/08/18 05:02:02;;;;;;;9.32;4.18;;;17.60;80.00;;;;;;4816717;29;20019;-80
2021/08/18 05:04:28;;;;;;;6.63;3.88;;;17.60;79.90;;;;;;4815875;29;20029;-79
2021/08/18 05:06:53;;;;;;;6.93;4.13;;;17.60;80.20;;;;;;4817391;29;20041;-79
2021/08/18 05:09:19;;;;;;;7.38;4.03;;;17.60;80.60;;;;;;4817998;29;20031;-79
2021/08/18 05:11:45;;;;;;;7.38;3.90;;;17.60;80.50;;;;;;4803164;29;20026;-80
2021/08/18 05:14:11;;;;;;;10.57;4.28;;;17.60;80.40;;;;;;4814410;29;20026;-79
2021/08/18 05:16:36;;;;;;;7.28;4.38;;;17.60;80.80;;;;;;4799780;29;20039;-79
2021/08/18 05:19:02;;;;;;;8.95;4.47;;;17.60;81.00;;;;;;4824230;29;20102;-79
2021/08/18 05:21:28;;;;;;;13.07;4.30;;;17.60;80.90;;;;;;4808789;29;20031;-79
2021/08/18 05:23:54;;;;;;;8.90;4.35;;;17.60;81.20;;;;;;4822673;29;20041;-79
2021/08/18 05:26:20;;;;;;;5.80;3.90;;;17.60;81.50;;;;;;4807045;29;20046;-79
2021/08/18 05:28:46;;;;;;;10.45;4.20;;;17.60;81.70;;;;;;4829286;29;20023;-79
2021/08/18 05:31:12;;;;;;;6.55;4.25;;;17.50;82.20;;;;;;4828465;29;20026;-79
2021/08/18 05:33:37;;;;;;;8.77;4.45;;;17.50;82.50;;;;;;4815497;29;20027;-79
2021/08/18 05:36:04;;;;;;;10.38;5.30;;;17.50;82.90;;;;;;4814978;29;20042;-79
2021/08/18 05:38:30;;;;;;;6.68;4.68;;;17.40;83.10;;;;;;4830411;29;20207;-79
2021/08/18 05:40:56;;;;;;;8.80;5.15;;;17.40;83.70;;;;;;4803517;29;20112;-79
2021/08/18 05:43:21;;;;;;;6.07;4.10;;;17.50;83.70;;;;;;4819911;29;20102;-79
2021/08/18 05:45:47;;;;;;;7.03;4.10;;;17.60;83.50;;;;;;4822848;29;20069;-79
2021/08/18 05:48:13;;;;;;;14.60;4.30;;;17.50;83.20;;;;;;4801004;29;20253;-79
2021/08/18 05:50:39;;;;;;;10.88;4.35;;;17.50;83.40;;;;;;4819844;29;20107;-79
2021/08/18 05:53:07;;;;;;;8.38;4.05;;;17.50;83.40;;;;;;4812295;29;20057;-80
2021/08/18 05:55:32;;;;;;;7.32;3.90;;;17.50;83.90;;;;;;4813008;29;20059;-79
2021/08/18 05:57:58;;;;;;;8.90;4.50;;;17.60;83.50;;;;;;4813237;29;20034;-79
2021/08/18 06:00:24;;;;;;;7.70;4.20;;;17.60;82.40;;;;;;4793504;30;20023;-79
2021/08/18 06:02:50;;;;;;;8.13;4.72;;;17.70;82.10;;;;;;4827914;29;20031;-79
2021/08/18 06:05:16;;;;;;;7.70;4.40;;;17.70;81.50;;;;;;4822537;29;20098;-79
2021/08/18 06:07:41;;;;;;;7.57;4.00;;;17.80;80.80;;;;;;4825732;29;20041;-79
2021/08/18 06:10:07;;;;;;;8.77;4.10;;;17.90;81.30;;;;;;4829448;29;20330;-79
2021/08/18 06:12:33;;;;;;;9.10;4.32;;;18.10;80.50;;;;;;4806882;29;20357;-79
2021/08/18 06:14:59;;;;;;;8.88;4.65;;;18.10;80.00;;;;;;4815672;29;20040;-79
2021/08/18 06:17:25;;;;;;;7.90;4.30;;;18.10;79.40;;;;;;4828246;29;20030;-80
2021/08/18 06:19:52;;;;;;;6.25;4.13;;;18.10;79.50;;;;;;4812518;29;20060;-79
2021/08/18 06:22:18;;;;;;;7.65;4.50;;;18.20;79.50;;;;;;4818370;29;20075;-79
2021/08/18 06:24:46;;;;;;;7.10;4.25;;;18.30;79.20;;;;;;4818607;29;20385;-79
2021/08/18 06:27:13;;;;;;;8.35;3.90;;;18.40;79.10;;;;;;4833562;29;20031;-80
2021/08/18 06:29:38;;;;;;;;;;;18.40;78.40;;;;;;4833680;29;20043;-79
2021/08/18 06:32:05;;;;;;;7.50;4.13;;;18.40;78.50;;;;;;4833221;29;19916;-79
2021/08/18 06:34:31;;;;;;;7.32;4.18;;;18.50;78.70;;;;;;4818763;29;20102;-80
2021/08/18 06:37:06;;;;;;;9.80;4.60;;;18.50;78.70;;;;;;4833248;29;20084;-80
2021/08/18 06:39:34;;;;;;;9.13;4.53;;;18.50;78.10;;;;;;4833257;29;20103;-79
2021/08/18 06:42:00;;;;;;;11.13;4.53;;;18.40;77.50;;;;;;4818794;29;20031;-79
2021/08/18 06:44:26;;;;;;;7.70;4.38;;;18.30;78.50;;;;;;4833280;29;20030;-80
2021/08/18 06:46:52;;;;;;;11.43;4.10;;;18.40;78.10;;;;;;4832552;29;20046;-80
2021/08/18 06:49:18;;;;;;;7.50;4.40;;;18.70;78.20;;;;;;4788104;29;20034;-80
2021/08/18 06:51:44;;;;;;;10.55;5.20;;;18.90;77.30;;;;;;4831221;29;20038;-80
2021/08/18 06:54:10;;;;;;;8.77;4.10;;;19.10;77.40;;;;;;4799552;29;20023;-80
2021/08/18 06:56:36;;;;;;;9.63;4.35;;;19.30;75.70;;;;;;4828399;29;20079;-80
2021/08/18 06:59:02;;;;;;;8.63;4.32;;;19.40;74.50;;;;;;4821026;29;20080;-79
2021/08/18 07:01:28;;;;;;;9.80;4.53;;;19.70;74.40;;;;;;4814471;29;20038;-80
2021/08/18 07:03:54;;;;;;;7.20;4.25;;;19.90;73.20;;;;;;4820481;29;20026;-80
2021/08/18 07:06:20;;;;;;;7.40;4.70;;;20.10;72.50;;;;;;4817798;29;20345;-80
2021/08/18 07:08:45;;;;;;;7.28;4.15;;;20.50;70.80;;;;;;4806551;29;20031;-80
2021/08/18 07:11:11;;;;;;;15.07;5.22;;;20.70;68.50;;;;;;4830299;29;20203;-80
2021/08/18 07:13:38;;;;;;;8.43;4.18;;;20.50;68.80;;;;;;4826688;29;20222;-80
2021/08/18 07:16:05;;;;;;;;;;;20.30;69.20;;;;;;4821368;29;20063;-80
2021/08/18 07:18:31;;;;;;;8.95;4.03;;;20.20;69.00;;;;;;4835928;29;19921;-80
2021/08/18 07:20:57;;;;;;;8.53;4.67;;;20.10;69.70;;;;;;4808280;29;20039;-80
2021/08/18 07:23:23;;;;;;;8.70;4.60;;;20.10;71.00;;;;;;4818695;29;20345;-80
2021/08/18 07:25:49;;;;;;;14.00;5.10;;;20.20;70.00;;;;;;4804546;29;20235;-81
2021/08/18 07:28:15;;;;;;;7.10;4.38;;;20.30;69.10;;;;;;4816947;29;20027;-78
2021/08/18 07:30:41;;;;;;;7.97;4.53;;;20.30;69.00;;;;;;4826868;29;20331;-80
2021/08/18 07:33:07;;;;;;;8.88;4.20;;;20.40;69.30;;;;;;4812770;29;20069;-78
2021/08/18 07:35:33;;;;;;;7.07;4.78;;;20.40;68.70;;;;;;4817287;29;20030;-79
2021/08/18 07:37:58;;;;;;;7.97;4.20;;;20.60;67.70;;;;;;4816904;29;20031;-79
2021/08/18 07:40:25;;;;;;;8.75;4.43;;;20.70;68.10;;;;;;4818128;29;20111;-78
2021/08/18 07:42:52;;;;;;;8.63;4.50;;;20.90;67.50;;;;;;4818276;29;20053;-79
2021/08/18 07:45:18;;;;;;;10.20;4.63;;;20.90;67.90;;;;;;4817132;29;20031;-79
2021/08/18 07:47:45;;;;;;;11.20;4.38;;;20.90;68.00;;;;;;4801696;29;20057;-79
2021/08/18 07:50:11;;;;;;;7.57;4.78;;;21.00;67.50;;;;;;4816964;29;20106;-78
2021/08/18 07:52:37;;;;;;;7.60;5.07;;;20.80;67.40;;;;;;4802104;29;20042;-78
2021/08/18 07:55:04;;;;;;;11.57;4.50;;;20.70;68.10;;;;;;4816952;29;20038;-78
2021/08/18 07:57:34;;;;;;;8.00;3.70;;;20.70;68.60;;;;;;4816852;29;20229;-78
2021/08/18 08:00:00;;;;;;;12.10;5.43;;;20.70;69.70;;;;;;4816472;29;20038;-79
2021/08/18 08:02:26;;;;;;;11.03;4.90;;;20.70;67.60;;;;;;4831876;29;20314;-78
2021/08/18 08:04:51;;;;;;;11.77;4.93;;;20.60;67.80;;;;;;4816928;29;20041;-78
2021/08/18 08:07:17;;;;;;;9.00;4.35;;;20.40;68.70;;;;;;4821718;29;20226;-78
2021/08/18 08:09:43;;;;;;;7.55;4.40;;;20.40;69.70;;;;;;4798696;30;20043;-79
2021/08/18 08:12:09;;;;;;;7.15;4.65;;;20.40;69.50;;;;;;4798721;30;20061;-79
2021/08/18 08:14:35;;;;;;;9.07;4.33;;;20.30;68.60;;;;;;4790614;29;20465;-79
2021/08/18 08:17:00;;;;;;;9.25;4.68;;;20.30;69.40;;;;;;4816820;29;20035;-79
2021/08/18 08:19:26;;;;;;;8.45;4.60;;;20.30;69.50;;;;;;4817401;29;20031;-78
2021/08/18 08:21:52;;;;;;;6.53;4.30;;;20.40;68.80;;;;;;4815362;29;20192;-78
2021/08/18 08:24:18;;;;;;;7.45;4.68;;;20.60;68.80;;;;;;4829573;29;20026;-78
2021/08/18 08:26:43;;;;;;;8.98;4.95;;;20.60;67.80;;;;;;4798536;30;20372;-78
2021/08/18 08:29:09;;;;;;;7.22;4.65;;;20.70;67.50;;;;;;4798405;29;20070;-78
2021/08/18 08:31:36;;;;;;;11.18;4.75;;;21.00;67.90;;;;;;4799383;29;20048;-78
2021/08/18 08:34:02;;;;;;;11.20;4.80;;;21.20;66.50;;;;;;4799602;29;20127;-78
2021/08/18 08:36:28;;;;;;;7.10;4.77;;;21.40;65.70;;;;;;4799329;29;20034;-78
2021/08/18 08:38:54;;;;;;;8.90;5.35;;;21.10;66.50;;;;;;4813109;29;20037;-78
2021/08/18 08:41:20;;;;;;;7.70;5.15;;;21.00;67.30;;;;;;4797824;30;20059;-78
2021/08/18 08:43:46;;;;;;;10.10;5.15;;;21.00;66.70;;;;;;4799272;30;20050;-77
2021/08/18 08:46:12;;;;;;;7.63;4.43;;;21.00;67.70;;;;;;4797560;29;20493;-79
2021/08/18 08:48:39;;;;;;;7.13;4.65;;;21.10;67.90;;;;;;4799412;29;20023;-78
2021/08/18 08:51:06;;;;;;;;;;;21.30;67.80;;;;;;4812610;29;20090;-78
2021/08/18 08:53:32;;;;;;;7.97;4.32;;;21.90;67.40;;;;;;4808265;29;20101;-78
2021/08/18 08:55:58;;;;;;;7.15;4.40;;;22.40;65.30;;;;;;4815796;29;20026;-78
2021/08/18 08:58:25;;;;;;;6.47;3.95;;;22.80;64.80;;;;;;4816943;29;20041;-78
2021/08/18 09:00:52;;;;;;;6.32;3.70;;;22.70;62.40;;;;;;4814910;29;20072;-78
2021/08/18 09:03:22;;;;;;;6.87;3.23;;;22.60;63.50;;;;;;4797772;30;20035;-78
2021/08/18 09:05:49;;;;;;;6.60;3.75;;;22.30;63.10;;;;;;4806730;29;20054;-78
2021/08/18 09:08:17;;;;;;;9.93;3.58;;;21.90;65.50;;;;;;4799763;29;20062;-78
2021/08/18 09:11:04;;;;;;;7.63;3.80;;;21.70;65.40;;;;;;4810240;29;20031;-78
2021/08/18 09:13:54;;;;;;;8.63;4.40;;;21.50;65.90;;;;;;4810998;29;20039;-78
2021/08/18 09:16:29;;;;;;;6.45;4.10;;;21.60;67.30;;;;;;4814963;29;20046;-78
2021/08/18 09:18:55;;;;;;;7.35;4.63;;;21.40;67.40;;;;;;4815020;29;20038;-78
2021/08/18 09:21:28;;;;;;;8.50;4.50;;;21.40;67.90;;;;;;4814967;29;20135;-78
2021/08/18 09:24:12;;;;;;;9.63;4.38;;;21.50;67.00;;;;;;4814835;29;20031;-78
2021/08/18 09:26:39;;;;;;;7.20;4.43;;;21.50;67.50;;;;;;4799932;29;20287;-78
2021/08/18 09:29:04;;;;;;;7.78;4.07;;;21.50;68.40;;;;;;4799773;29;20038;-78
2021/08/18 09:31:30;;;;;;;8.10;3.72;;;21.50;68.10;;;;;;4814749;29;20088;-78
2021/08/18 09:33:56;;;;;;;7.70;3.78;;;21.60;67.30;;;;;;4798672;29;20243;-78
2021/08/18 09:36:24;;;;;;;8.37;4.67;;;21.80;65.90;;;;;;4799594;29;20054;-78
2021/08/18 09:38:50;;;;;;;13.00;5.15;;;22.10;65.60;;;;;;4799682;29;20031;-78
2021/08/18 09:41:19;;;;;;;10.93;5.80;;;22.20;66.30;;;;;;4804371;29;20172;-78
2021/08/18 09:43:45;;;;;;;12.07;6.60;;;22.20;63.70;;;;;;4781756;30;20081;-78
2021/08/18 09:46:11;;;;;;;10.73;5.68;;;22.30;62.90;;;;;;4766381;30;20051;-78
2021/08/18 09:48:38;;;;;;;10.32;5.85;;;22.10;62.80;;;;;;4781432;30;20305;-78
2021/08/18 09:51:06;;;;;;;8.63;5.20;;;22.20;63.70;;;;;;4782094;30;20031;-78
2021/08/18 09:53:39;;;;;;;10.25;5.32;;;22.60;64.70;;;;;;4790151;30;20309;-78
2021/08/18 09:56:07;;;;;;;11.07;6.05;;;22.80;62.00;;;;;;4797113;30;20042;-79
2021/08/18 09:58:41;;;;;;;7.90;5.13;;;23.10;62.20;;;;;;4804519;29;20087;-79
2021/08/18 10:01:10;;;;;;;10.88;5.63;;;23.20;61.50;;;;;;4825218;29;20188;-78
2021/08/18 10:04:03;;;;;;;8.65;5.55;;;23.40;62.50;;;;;;4819779;29;20340;-79
2021/08/18 10:06:30;;;;;;;11.25;5.70;;;23.70;61.30;;;;;;4777764;30;20044;-80
2021/08/18 10:08:56;;;;;;;10.32;5.65;;;23.80;60.40;;;;;;4778235;30;20040;-78
2021/08/18 10:11:24;;;;;;;14.07;5.97;;;23.80;60.30;;;;;;4778263;30;20036;-79
2021/08/18 10:13:51;;;;;;;11.57;5.35;;;23.60;59.50;;;;;;4748943;30;20040;-78
2021/08/18 10:16:16;;;;;;;;;;;23.50;61.10;;;;;;4764093;30;20036;-78
2021/08/18 10:18:44;;;;;;;12.17;5.37;;;23.50;59.30;;;;;;4778171;30;19929;-78
2021/08/18 10:21:23;;;;;;;8.02;5.15;;;23.30;60.20;;;;;;4748491;30;20386;-78
2021/08/18 10:24:00;;;;;;;8.27;5.43;;;23.20;59.70;;;;;;4778410;30;20127;-78
2021/08/18 10:26:31;;;;;;;;;;;22.80;60.80;;;;;;4749623;30;20038;-78
2021/08/18 10:29:30;;;;;;;9.90;5.40;;;22.50;62.40;;;;;;4763330;30;19978;-78
2021/08/18 10:32:01;;;;;;;7.40;5.15;;;22.70;63.00;;;;;;4727704;30;20270;-77
2021/08/18 10:34:37;;;;;;;9.43;5.63;;;23.00;62.40;;;;;;4728206;30;20107;-78
2021/08/18 10:37:12;;;;;;;11.30;5.57;;;23.10;61.00;;;;;;4727512;30;20158;-77
2021/08/18 10:39:51;;;;;;;10.48;6.07;;;23.00;61.00;;;;;;4728316;30;20032;-78
2021/08/18 10:42:30;;;;;;;7.47;4.97;;;22.90;63.00;;;;;;4744822;30;20086;-77
2021/08/18 10:44:55;;;;;;;9.18;5.18;;;23.10;63.50;;;;;;4762915;30;20032;-78
2021/08/18 10:47:26;;;;;;;9.27;5.32;;;23.40;62.30;;;;;;4748608;30;20114;-77
2021/08/18 10:49:54;;;;;;;8.63;4.88;;;23.60;60.60;;;;;;4763915;30;20090;-78
2021/08/18 10:52:28;;;;;;;8.93;5.72;;;23.60;59.90;;;;;;4762563;30;20758;-77
2021/08/18 10:55:09;;;;;;;6.75;4.75;;;23.70;59.90;;;;;;4763536;30;20063;-78
2021/08/18 10:57:39;;;;;;;8.57;5.20;;;23.60;59.70;;;;;;4748475;30;20215;-78
2021/08/18 11:00:22;;;;;;;9.32;5.00;;;23.70;59.20;;;;;;4763335;30;20039;-78
2021/08/18 11:02:58;;;;;;;6.53;4.30;;;23.60;59.00;;;;;;4749571;30;20040;-77
2021/08/18 11:05:38;;;;;;;11.73;5.13;;;23.60;59.60;;;;;;4766351;30;20038;-78
2021/08/18 11:08:14;;;;;;;6.30;3.88;;;23.40;59.30;;;;;;4784818;29;20039;-78
2021/08/18 11:10:55;;;;;;;5.90;4.10;;;23.40;60.20;;;;;;4817948;29;20043;-78
2021/08/18 11:13:46;;;;;;;5.38;3.92;;;23.40;59.20;;;;;;4817412;29;20211;-78
2021/08/18 11:16:15;;;;;;;7.95;5.25;;;23.60;59.40;;;;;;4821321;29;20034;-78
2021/08/18 11:18:49;;;;;;;7.60;5.28;;;23.60;59.80;;;;;;4826952;29;20049;-78
2021/08/18 11:21:32;;;;;;;6.90;4.68;;;23.50;59.90;;;;;;4831241;29;20027;-78
2021/08/18 11:24:01;;;;;;;8.93;5.47;;;23.30;59.90;;;;;;4813137;29;20075;-80
2021/08/18 11:26:32;;;;;;;6.40;3.90;;;23.10;60.80;;;;;;4820730;29;20083;-79
2021/08/18 11:29:07;;;;;;;6.90;4.22;;;23.10;61.30;;;;;;4836106;29;20031;-79
2021/08/18 11:31:51;;;;;;;8.05;4.88;;;22.80;61.60;;;;;;4812351;29;20030;-79
2021/08/18 11:34:31;;;;;;;6.88;4.40;;;22.90;62.30;;;;;;4818341;29;20035;-79
2021/08/18 11:37:06;;;;;;;8.25;4.28;;;23.10;60.60;;;;;;4817043;29;20068;-79
2021/08/18 11:39:35;;;;;;;6.50;4.53;;;22.90;59.50;;;;;;4802132;29;20058;-79
2021/08/18 11:42:19;;;;;;;5.75;4.00;;;22.70;61.20;;;;;;4832322;29;20030;-79
2021/08/18 11:44:46;;;;;;;6.05;4.00;;;22.80;61.10;;;;;;4814797;29;20035;-78
2021/08/18 11:47:14;;;;;;;5.97;3.85;;;22.80;60.60;;;;;;4798838;29;20071;-79
2021/08/18 11:49:43;;;;;;;7.63;4.13;;;22.90;61.30;;;;;;4811960;29;20035;-79
2021/08/18 11:52:18;;;;;;;6.32;4.03;;;22.80;61.00;;;;;;4800083;29;20226;-79
2021/08/18 11:55:02;;;;;;;6.07;4.50;;;22.90;62.80;;;;;;4816762;29;20325;-79
2021/08/18 11:57:29;;;;;;;5.00;3.92;;;22.60;63.60;;;;;;4832179;29;20043;-79
2021/08/18 11:59:56;;;;;;;5.22;4.00;;;22.60;63.20;;;;;;4802147;29;20319;-79
2021/08/18 12:02:23;;;;;;;5.50;3.92;;;22.50;63.30;;;;;;4816917;29;20046;-79
2021/08/18 12:04:50;;;;;;;4.60;3.22;;;22.70;64.40;;;;;;4816760;29;20031;-79
2021/08/18 12:07:17;;;;;;;5.55;3.28;;;22.70;63.20;;;;;;4786269;30;20031;-79
2021/08/18 12:10:07;;;;;;;5.53;4.00;;;22.60;63.60;;;;;;4813632;29;20051;-79
2021/08/18 12:12:32;;;;;;;6.20;3.60;;;22.70;63.80;;;;;;4826070;29;20229;-78
2021/08/18 12:15:14;;;;;;;7.30;3.95;;;22.60;63.80;;;;;;4818425;29;20038;-79
2021/08/18 12:17:42;;;;;;;6.20;3.75;;;22.40;64.70;;;;;;4822221;29;20047;-79
2021/08/18 12:20:26;;;;;;;7.20;3.72;;;22.30;65.60;;;;;;4815137;29;20027;-79
2021/08/18 12:22:52;;;;;;;8.10;3.70;;;22.20;65.80;;;;;;4817748;29;20030;-79
2021/08/18 12:25:18;;;;;;;4.45;3.35;;;22.40;64.90;;;;;;4817658;29;20334;-79
2021/08/18 12:27:44;;;;;;;3.75;3.15;;;22.70;65.00;;;;;;4824457;29;20037;-79
2021/08/18 12:30:12;;;;;;;3.58;3.15;;;23.00;61.80;;;;;;4819384;29;20233;-79
2021/08/18 12:32:39;;;;;;;5.47;3.50;;;23.30;63.00;;;;;;4849721;29;20097;-79
2021/08/18 12:35:09;;;;;;;;;;;23.50;61.90;;;;;;4820036;29;20027;-79
2021/08/18 12:37:38;;;;;;;5.05;3.67;;;23.60;61.80;;;;;;4816274;29;19987;-79
2021/08/18 12:40:24;;;;;;;5.93;3.55;;;23.80;61.00;;;;;;4809189;29;20035;-79
2021/08/18 12:43:01;;;;;;;3.78;2.55;;;23.90;59.50;;;;;;4813148;29;20066;-79
2021/08/18 12:45:32;;;;;;;2.88;2.40;;;24.20;60.30;;;;;;4813379;29;20049;-79
2021/08/18 12:47:59;;;;;;;2.90;2.42;;;24.20;57.40;;;;;;4798145;30;20125;-79
2021/08/18 12:50:43;;;;;;;4.72;2.50;;;24.10;57.50;;;;;;4799315;30;20039;-79
2021/08/18 12:53:09;;;;;;;4.22;2.55;;;23.70;58.70;;;;;;4812679;29;20035;-79
2021/08/18 12:55:39;;;;;;;43.63;4.57;;;23.60;59.10;;;;;;4828744;29;20064;-79
2021/08/18 12:58:18;;;;;;;4.63;2.53;;;23.40;59.80;;;;;;4815933;29;20042;-79
2021/08/18 13:00:44;;;;;;;6.47;2.75;;;23.50;59.50;;;;;;4815961;29;20038;-79
2021/08/18 13:03:10;;;;;;;5.20;3.03;;;23.70;60.60;;;;;;4815429;29;20277;-79
2021/08/18 13:05:36;;;;;;;5.47;3.25;;;23.90;59.10;;;;;;4815422;29;20035;-79
2021/08/18 13:08:02;;;;;;;5.13;2.53;;;23.90;60.00;;;;;;4817279;29;20203;-80
2021/08/18 13:10:27;;;;;;;4.70;2.63;;;24.00;60.50;;;;;;4815626;29;20038;-79
2021/08/18 13:12:53;;;;;;;6.88;2.75;;;24.00;60.20;;;;;;4815820;29;20082;-79
2021/08/18 13:15:19;;;;;;;2.83;2.08;;;24.00;60.60;;;;;;4815892;29;20046;-79
2021/08/18 13:17:45;;;;;;;4.03;2.35;;;24.00;59.10;;;;;;4800466;29;20365;-79
2021/08/18 13:20:11;;;;;;;3.13;2.08;;;23.80;59.90;;;;;;4800584;29;20031;-79
2021/08/18 13:22:37;;;;;;;3.20;2.17;;;23.90;59.10;;;;;;4800712;29;20075;-79
2021/08/18 13:25:03;;;;;;;3.92;2.33;;;23.90;60.10;;;;;;4817097;29;20026;-79
2021/08/18 13:27:31;;;;;;;3.28;2.00;;;23.90;59.00;;;;;;4800475;29;20054;-80
2021/08/18 13:29:57;;;;;;;5.90;3.03;;;24.00;58.70;;;;;;4797129;29;20058;-80
2021/08/18 13:32:22;;;;;;;7.40;3.40;;;23.90;59.50;;;;;;4827785;29;20086;-78
2021/08/18 13:34:48;;;;;;;4.40;3.25;;;23.70;61.00;;;;;;4814101;29;20111;-78
2021/08/18 13:37:15;;;;;;;5.53;3.78;;;23.50;61.70;;;;;;4814447;29;20033;-78
2021/08/18 13:39:40;;;;;;;13.20;3.55;;;23.60;61.50;;;;;;4814652;29;20319;-78
2021/08/18 13:42:06;;;;;;;5.38;3.67;;;23.50;61.60;;;;;;4816752;29;20057;-78
2021/08/18 13:44:34;;;;;;;8.13;3.53;;;23.60;62.30;;;;;;4830646;29;20023;-78
2021/08/18 13:47:00;;;;;;;4.20;3.15;;;23.70;61.90;;;;;;4840554;29;20417;-79
2021/08/18 13:49:26;;;;;;;5.93;3.75;;;23.90;61.20;;;;;;4833382;29;20031;-78
2021/08/18 13:51:53;;;;;;;6.40;3.83;;;24.00;61.80;;;;;;4806976;29;20061;-78
2021/08/18 13:54:19;;;;;;;4.18;3.05;;;24.10;61.90;;;;;;4815452;29;20080;-78
2021/08/18 13:56:44;;;;;;;5.95;3.92;;;24.00;61.40;;;;;;4800282;29;20278;-78
2021/08/18 13:59:10;;;;;;;5.05;3.30;;;24.10;60.80;;;;;;4815344;29;20273;-78
2021/08/18 14:01:37;;;;;;;6.88;3.30;;;24.10;60.50;;;;;;4817289;29;20036;-78
2021/08/18 14:04:02;;;;;;;9.37;3.40;;;24.30;61.30;;;;;;4812048;29;20345;-78
2021/08/18 14:06:28;;;;;;;6.97;4.00;;;24.60;59.60;;;;;;4822759;29;20034;-78
2021/08/18 14:08:55;;;;;;;4.30;3.33;;;24.70;58.80;;;;;;4830582;29;20023;-78
2021/08/18 14:11:21;;;;;;;6.37;4.20;;;24.60;59.30;;;;;;4846717;29;20033;-78
2021/08/18 14:13:47;;;;;;;5.93;3.72;;;24.60;59.40;;;;;;4834704;29;20030;-78
2021/08/18 14:16:13;;;;;;;4.18;3.05;;;24.80;60.20;;;;;;4833030;29;20085;-78
2021/08/18 14:18:39;;;;;;;5.95;3.42;;;25.00;57.90;;;;;;4826589;29;20046;-78
2021/08/18 14:21:06;;;;;;;6.43;4.00;;;25.20;57.20;;;;;;4818624;29;20051;-78
2021/08/18 14:23:33;;;;;;;;;;;25.40;57.50;;;;;;4815758;29;20625;-78
2021/08/18 14:26:02;;;;;;;6.38;4.57;;;25.60;58.10;;;;;;4818079;29;19909;-77
2021/08/18 14:28:28;;;;;;;5.55;3.20;;;25.90;58.20;;;;;;4814856;29;20030;-78
2021/08/18 14:30:55;;;;;;;6.55;4.10;;;25.90;55.50;;;;;;4806746;29;20062;-78
2021/08/18 14:33:20;;;;;;;5.63;3.53;;;25.50;56.40;;;;;;4836439;29;20040;-78
2021/08/18 14:35:46;;;;;;;4.97;3.35;;;25.40;56.90;;;;;;4825250;29;20057;-78
2021/08/18 14:38:12;;;;;;;22.30;5.07;;;25.50;57.70;;;;;;4837090;29;20034;-78
2021/08/18 14:40:38;;;;;;;6.53;4.10;;;25.20;57.30;;;;;;4836377;29;20057;-78
2021/08/18 14:43:04;;;;;;;10.00;4.35;;;25.20;57.60;;;;;;4814943;29;20042;-78
2021/08/18 14:45:29;;;;;;;9.15;4.75;;;24.80;57.40;;;;;;4816848;29;20076;-78
2021/08/18 14:47:55;;;;;;;8.80;4.43;;;24.40;56.80;;;;;;4793877;29;20055;-78
2021/08/18 14:50:21;;;;;;;6.45;4.35;;;24.00;58.50;;;;;;4819205;29;20263;-78
2021/08/18 14:52:47;;;;;;;6.73;4.67;;;23.80;60.20;;;;;;4803462;29;20061;-77
2021/08/18 14:55:14;;;;;;;9.20;4.85;;;23.80;60.10;;;;;;4835910;29;20098;-78
2021/08/18 14:57:41;;;;;;;7.45;5.15;;;23.90;60.40;;;;;;4821841;29;20097;-78
2021/08/18 15:00:10;;;;;;;8.10;4.65;;;23.90;61.10;;;;;;4818135;29;20210;-78
2021/08/18 15:02:36;;;;;;;28.63;7.20;;;23.80;60.70;;;;;;4817478;29;20026;-78
2021/08/18 15:05:03;;;;;;;12.25;5.18;;;23.70;61.40;;;;;;4814870;29;20026;-78
2021/08/18 15:07:29;;;;;;;;;;;23.60;61.90;;;;;;4818183;29;20195;-78
2021/08/18 15:09:56;;;;;;;13.25;5.90;;;23.70;62.30;;;;;;4838069;29;20017;-78
2021/08/18 15:12:22;;;;;;;7.93;5.37;;;23.90;61.50;;;;;;4838138;29;20042;-78
2021/08/18 15:14:48;;;;;;;8.82;5.97;;;24.10;61.80;;;;;;4853543;29;20040;-78
2021/08/18 15:17:15;;;;;;;8.32;5.28;;;24.20;61.20;;;;;;4852090;29;20105;-78
2021/08/18 15:19:43;;;;;;;9.68;5.93;;;24.30;60.30;;;;;;4856104;29;20026;-78
2021/08/18 15:22:10;;;;;;;12.13;6.75;;;24.40;59.50;;;;;;4806477;29;20042;-75
2021/08/18 15:24:35;;;;;;;10.40;6.93;;;24.50;59.10;;;;;;4836810;29;20153;-78
2021/08/18 15:27:02;;;;;;;11.90;6.07;;;24.60;59.10;;;;;;4835821;29;20029;-78
2021/08/18 15:29:28;;;;;;;11.88;6.57;;;24.30;59.10;;;;;;4837798;29;20072;-78
2021/08/18 15:31:55;;;;;;;8.33;6.00;;;24.10;59.90;;;;;;4837189;29;20034;-78
2021/08/18 15:34:21;;;;;;;12.73;7.32;;;24.20;59.40;;;;;;4847862;29;20282;-78
2021/08/18 15:36:48;;;;;;;12.90;6.73;;;24.20;60.70;;;;;;4836083;29;20038;-78